sensor_id;sensor_type;location;lat;lon;timestamp;temperature;humidity
9915;DHT22;4996;48.746;9.174;2022-09-27T00:00:28;10.80;99.90
9915;DHT22;4996;48.746;9.174;2022-09-27T00:02:54;10.70;99.90
9915;DHT22;4996;48.746;9.174;2022-09-27T00:05:19;10.80;99.90
9915;DHT22;4996;48.746;9.174;2022-09-27T00:07:45;10.80;99.90
9915;DHT22;4996;48.746;9.174;2022-09-27T00:10:11;10.80;99.90
9915;DHT22;4996;48.746;9.174;2022-09-27T00:12:37;10.60;99.90
9915;DHT22;4996;48.746;9.174;2022-09-27T00:15:03;10.60;99.90
9915;DHT22;4996;48.746;9.174;2022-09-27T00:17:29;10.60;99.90
9915;DHT22;4996;48.746;9.174;2022-09-27T00:19:57;10.70;99.90
9915;DHT22;4996;48.746;9.174;2022-09-27T00:22:23;10.70;99.90
9915;DHT22;4996;48.746;9.174;2022-09-27T00:24:49;10.80;99.90
9915;DHT22;4996;48.746;9.174;2022-09-27T00:27:15;10.70;99.90
9915;DHT22;4996;48.746;9.174;2022-09-27T00:29:42;10.80;99.90
9915;DHT22;4996;48.746;9.174;2022-09-27T00:32:07;10.80;99.90
9915;DHT22;4996;48.746;9.174;2022-09-27T00:34:33;10.80;99.90
9915;DHT22;4996;48.746;9.174;2022-09-27T00:36:58;10.80;99.90
9915;DHT22;4996;48.746;9.174;2022-09-27T00:39:24;11.00;99.90
9915;DHT22;4996;48.746;9.174;2022-09-27T00:41:50;10.90;99.90
9915;DHT22;4996;48.746;9.174;2022-09-27T00:47:10;10.90;99.90
9915;DHT22;4996;48.746;9.174;2022-09-27T00:49:47;10.80;99.90
9915;DHT22;4996;48.746;9.174;2022-09-27T00:52:29;10.60;99.90
9915;DHT22;4996;48.746;9.174;2022-09-27T00:55:13;10.60;99.90
9915;DHT22;4996;48.746;9.174;2022-09-27T00:57:41;10.60;99.90
9915;DHT22;4996;48.746;9.174;2022-09-27T01:00:10;10.70;99.90
9915;DHT22;4996;48.746;9.174;2022-09-27T01:02:40;10.70;99.90
9915;DHT22;4996;48.746;9.174;2022-09-27T01:05:08;10.80;99.90
9915;DHT22;4996;48.746;9.174;2022-09-27T01:07:34;10.70;99.90
9915;DHT22;4996;48.746;9.174;2022-09-27T01:10:00;10.70;99.90
9915;DHT22;4996;48.746;9.174;2022-09-27T01:18:14;10.70;99.90
9915;DHT22;4996;48.746;9.174;2022-09-27T01:23:50;10.70;99.90
9915;DHT22;4996;48.746;9.174;2022-09-27T01:31:48;10.80;99.90
9915;DHT22;4996;48.746;9.174;2022-09-27T01:34:31;10.90;99.90
9915;DHT22;4996;48.746;9.174;2022-09-27T01:42:40;11.10;99.90
9915;DHT22;4996;48.746;9.174;2022-09-27T01:45:18;11.00;99.90
9915;DHT22;4996;48.746;9.174;2022-09-27T01:47:51;11.00;99.90
9915;DHT22;4996;48.746;9.174;2022-09-27T01:50:21;11.00;99.90
9915;DHT22;4996;48.746;9.174;2022-09-27T01:52:53;11.00;99.90
9915;DHT22;4996;48.746;9.174;2022-09-27T01:55:23;11.10;99.90
9915;DHT22;4996;48.746;9.174;2022-09-27T01:57:56;11.10;99.90
9915;DHT22;4996;48.746;9.174;2022-09-27T02:00:24;11.20;99.90
9915;DHT22;4996;48.746;9.174;2022-09-27T02:02:56;11.10;99.90
9915;DHT22;4996;48.746;9.174;2022-09-27T02:05:29;11.10;99.90
9915;DHT22;4996;48.746;9.174;2022-09-27T02:07:59;11.20;99.90
9915;DHT22;4996;48.746;9.174;2022-09-27T02:10:39;11.00;99.90
9915;DHT22;4996;48.746;9.174;2022-09-27T02:14:11;11.20;99.90
9915;DHT22;4996;48.746;9.174;2022-09-27T02:19:24;11.40;99.90
9915;DHT22;4996;48.746;9.174;2022-09-27T02:24:23;11.50;99.90
9915;DHT22;4996;48.746;9.174;2022-09-27T02:27:00;11.50;99.90
9915;DHT22;4996;48.746;9.174;2022-09-27T02:29:33;11.50;99.90
9915;DHT22;4996;48.746;9.174;2022-09-27T02:32:00;11.20;99.90
9915;DHT22;4996;48.746;9.174;2022-09-27T02:34:28;11.20;99.90
9915;DHT22;4996;48.746;9.174;2022-09-27T02:36:55;11.10;99.90
9915;DHT22;4996;48.746;9.174;2022-09-27T02:39:22;11.10;99.90
9915;DHT22;4996;48.746;9.174;2022-09-27T02:41:49;11.00;99.90
9915;DHT22;4996;48.746;9.174;2022-09-27T02:44:15;10.90;99.90
9915;DHT22;4996;48.746;9.174;2022-09-27T02:52:57;10.80;99.90
9915;DHT22;4996;48.746;9.174;2022-09-27T03:03:38;10.60;99.90
9915;DHT22;4996;48.746;9.174;2022-09-27T03:06:15;10.60;99.90
9915;DHT22;4996;48.746;9.174;2022-09-27T03:08:42;10.70;99.90
9915;DHT22;4996;48.746;9.174;2022-09-27T03:11:08;10.60;99.90
9915;DHT22;4996;48.746;9.174;2022-09-27T03:13:33;10.70;99.90
9915;DHT22;4996;48.746;9.174;2022-09-27T03:16:01;10.80;99.90
9915;DHT22;4996;48.746;9.174;2022-09-27T03:18:26;10.90;99.90
9915;DHT22;4996;48.746;9.174;2022-09-27T03:20:52;10.80;99.90
9915;DHT22;4996;48.746;9.174;2022-09-27T03:23:19;10.80;99.90
9915;DHT22;4996;48.746;9.174;2022-09-27T03:25:44;10.60;99.90
9915;DHT22;4996;48.746;9.174;2022-09-27T03:28:10;10.60;99.90
9915;DHT22;4996;48.746;9.174;2022-09-27T03:30:36;10.60;99.90
9915;DHT22;4996;48.746;9.174;2022-09-27T03:33:02;10.50;99.90
9915;DHT22;4996;48.746;9.174;2022-09-27T03:35:28;10.60;99.90
9915;DHT22;4996;48.746;9.174;2022-09-27T03:37:53;10.70;99.90
9915;DHT22;4996;48.746;9.174;2022-09-27T03:40:19;10.50;99.90
9915;DHT22;4996;48.746;9.174;2022-09-27T03:42:44;10.50;99.90
9915;DHT22;4996;48.746;9.174;2022-09-27T03:45:10;10.40;99.90
9915;DHT22;4996;48.746;9.174;2022-09-27T03:47:39;10.50;99.90
9915;DHT22;4996;48.746;9.174;2022-09-27T03:50:06;10.50;99.90
9915;DHT22;4996;48.746;9.174;2022-09-27T03:52:32;10.50;99.90
9915;DHT22;4996;48.746;9.174;2022-09-27T03:54:58;10.40;99.90
9915;DHT22;4996;48.746;9.174;2022-09-27T03:57:24;10.30;99.90
9915;DHT22;4996;48.746;9.174;2022-09-27T03:59:49;10.40;99.90
9915;DHT22;4996;48.746;9.174;2022-09-27T04:02:15;10.50;99.90
9915;DHT22;4996;48.746;9.174;2022-09-27T04:04:41;10.50;99.90
9915;DHT22;4996;48.746;9.174;2022-09-27T04:07:07;10.60;99.90
9915;DHT22;4996;48.746;9.174;2022-09-27T04:09:34;10.60;99.90
9915;DHT22;4996;48.746;9.174;2022-09-27T04:12:00;10.60;99.90
9915;DHT22;4996;48.746;9.174;2022-09-27T04:14:26;10.70;99.90
9915;DHT22;4996;48.746;9.174;2022-09-27T04:16:52;10.70;99.90
9915;DHT22;4996;48.746;9.174;2022-09-27T04:19:17;10.60;99.90
9915;DHT22;4996;48.746;9.174;2022-09-27T04:21:42;10.70;99.90
9915;DHT22;4996;48.746;9.174;2022-09-27T04:24:08;10.80;99.90
9915;DHT22;4996;48.746;9.174;2022-09-27T04:26:36;10.80;99.90
9915;DHT22;4996;48.746;9.174;2022-09-27T04:29:02;10.90;99.90
9915;DHT22;4996;48.746;9.174;2022-09-27T04:31:27;10.80;99.90
9915;DHT22;4996;48.746;9.174;2022-09-27T04:33:54;10.80;99.90
9915;DHT22;4996;48.746;9.174;2022-09-27T04:36:21;10.90;99.90
9915;DHT22;4996;48.746;9.174;2022-09-27T04:39:01;10.90;99.90
9915;DHT22;4996;48.746;9.174;2022-09-27T04:41:27;10.80;99.90
9915;DHT22;4996;48.746;9.174;2022-09-27T04:43:57;10.80;99.90
9915;DHT22;4996;48.746;9.174;2022-09-27T04:46:26;10.80;99.90
9915;DHT22;4996;48.746;9.174;2022-09-27T04:48:56;10.90;99.90
9915;DHT22;4996;48.746;9.174;2022-09-27T04:51:22;10.90;99.90
9915;DHT22;4996;48.746;9.174;2022-09-27T04:53:47;10.90;99.90
9915;DHT22;4996;48.746;9.174;2022-09-27T04:56:13;10.90;99.90
9915;DHT22;4996;48.746;9.174;2022-09-27T04:58:39;10.90;99.90
9915;DHT22;4996;48.746;9.174;2022-09-27T05:01:05;10.90;99.90
9915;DHT22;4996;48.746;9.174;2022-09-27T05:03:31;10.90;99.90
9915;DHT22;4996;48.746;9.174;2022-09-27T05:05:57;10.90;99.90
9915;DHT22;4996;48.746;9.174;2022-09-27T05:08:23;10.80;99.90
9915;DHT22;4996;48.746;9.174;2022-09-27T05:10:49;10.90;99.90
9915;DHT22;4996;48.746;9.174;2022-09-27T05:13:15;11.00;99.90
9915;DHT22;4996;48.746;9.174;2022-09-27T05:15:41;11.00;99.90
9915;DHT22;4996;48.746;9.174;2022-09-27T05:18:07;11.00;99.90
9915;DHT22;4996;48.746;9.174;2022-09-27T05:20:37;11.00;99.90
9915;DHT22;4996;48.746;9.174;2022-09-27T05:23:03;10.90;99.90
9915;DHT22;4996;48.746;9.174;2022-09-27T05:25:30;10.70;99.90
9915;DHT22;4996;48.746;9.174;2022-09-27T05:27:56;10.70;99.90
9915;DHT22;4996;48.746;9.174;2022-09-27T05:30:22;10.70;99.90
9915;DHT22;4996;48.746;9.174;2022-09-27T05:32:48;10.70;99.90
9915;DHT22;4996;48.746;9.174;2022-09-27T05:35:15;10.70;99.90
9915;DHT22;4996;48.746;9.174;2022-09-27T05:37:42;10.80;99.90
9915;DHT22;4996;48.746;9.174;2022-09-27T05:40:08;10.80;99.90
9915;DHT22;4996;48.746;9.174;2022-09-27T05:42:33;10.70;99.90
9915;DHT22;4996;48.746;9.174;2022-09-27T05:45:04;10.80;99.90
9915;DHT22;4996;48.746;9.174;2022-09-27T05:47:31;10.80;99.90
9915;DHT22;4996;48.746;9.174;2022-09-27T05:49:56;10.60;99.90
9915;DHT22;4996;48.746;9.174;2022-09-27T05:52:22;10.70;99.90
9915;DHT22;4996;48.746;9.174;2022-09-27T05:54:48;10.80;99.90
9915;DHT22;4996;48.746;9.174;2022-09-27T05:57:13;10.70;99.90
9915;DHT22;4996;48.746;9.174;2022-09-27T05:59:39;10.80;99.90
9915;DHT22;4996;48.746;9.174;2022-09-27T06:02:05;10.80;99.90
9915;DHT22;4996;48.746;9.174;2022-09-27T06:04:31;11.20;99.90
9915;DHT22;4996;48.746;9.174;2022-09-27T06:06:56;10.90;99.90
9915;DHT22;4996;48.746;9.174;2022-09-27T06:09:23;11.00;99.90
9915;DHT22;4996;48.746;9.174;2022-09-27T06:11:49;11.00;99.90
9915;DHT22;4996;48.746;9.174;2022-09-27T06:14:15;11.00;99.90
9915;DHT22;4996;48.746;9.174;2022-09-27T06:16:40;10.90;99.90
9915;DHT22;4996;48.746;9.174;2022-09-27T06:19:06;10.90;99.90
9915;DHT22;4996;48.746;9.174;2022-09-27T06:21:31;10.90;99.90
9915;DHT22;4996;48.746;9.174;2022-09-27T06:23:58;11.20;99.90
9915;DHT22;4996;48.746;9.174;2022-09-27T06:26:24;10.80;99.90
9915;DHT22;4996;48.746;9.174;2022-09-27T06:28:51;10.80;99.90
9915;DHT22;4996;48.746;9.174;2022-09-27T06:31:17;10.80;99.90
9915;DHT22;4996;48.746;9.174;2022-09-27T06:33:43;10.80;99.90
9915;DHT22;4996;48.746;9.174;2022-09-27T06:36:08;10.90;99.90
9915;DHT22;4996;48.746;9.174;2022-09-27T06:38:34;10.80;99.90
9915;DHT22;4996;48.746;9.174;2022-09-27T06:41:03;10.80;99.90
9915;DHT22;4996;48.746;9.174;2022-09-27T06:43:31;10.90;99.90
9915;DHT22;4996;48.746;9.174;2022-09-27T06:46:00;10.80;99.90
9915;DHT22;4996;48.746;9.174;2022-09-27T06:48:33;10.80;99.90
9915;DHT22;4996;48.746;9.174;2022-09-27T06:51:02;10.80;99.90
9915;DHT22;4996;48.746;9.174;2022-09-27T06:53:27;10.90;99.90
9915;DHT22;4996;48.746;9.174;2022-09-27T06:55:57;10.80;99.90
9915;DHT22;4996;48.746;9.174;2022-09-27T06:58:23;10.70;99.90
9915;DHT22;4996;48.746;9.174;2022-09-27T07:01:07;10.80;99.90
9915;DHT22;4996;48.746;9.174;2022-09-27T07:03:33;10.80;99.90
9915;DHT22;4996;48.746;9.174;2022-09-27T07:06:02;10.90;99.90
9915;DHT22;4996;48.746;9.174;2022-09-27T07:08:29;11.10;99.90
9915;DHT22;4996;48.746;9.174;2022-09-27T07:11:00;11.00;99.90
9915;DHT22;4996;48.746;9.174;2022-09-27T07:13:27;11.10;99.90
9915;DHT22;4996;48.746;9.174;2022-09-27T07:15:57;11.20;99.90
9915;DHT22;4996;48.746;9.174;2022-09-27T07:18:22;11.00;99.90
9915;DHT22;4996;48.746;9.174;2022-09-27T07:20:48;10.80;99.90
9915;DHT22;4996;48.746;9.174;2022-09-27T07:23:15;10.90;99.90
9915;DHT22;4996;48.746;9.174;2022-09-27T07:25:41;10.80;99.90
9915;DHT22;4996;48.746;9.174;2022-09-27T07:28:11;10.60;99.90
9915;DHT22;4996;48.746;9.174;2022-09-27T07:30:38;10.70;99.90
9915;DHT22;4996;48.746;9.174;2022-09-27T07:33:05;10.50;99.90
9915;DHT22;4996;48.746;9.174;2022-09-27T07:35:30;10.70;99.90
9915;DHT22;4996;48.746;9.174;2022-09-27T07:37:56;10.80;99.90
9915;DHT22;4996;48.746;9.174;2022-09-27T07:40:24;10.90;99.90
9915;DHT22;4996;48.746;9.174;2022-09-27T07:42:57;11.10;99.90
9915;DHT22;4996;48.746;9.174;2022-09-27T07:45:23;10.90;99.90
9915;DHT22;4996;48.746;9.174;2022-09-27T07:47:49;11.00;99.90
9915;DHT22;4996;48.746;9.174;2022-09-27T07:50:15;11.10;99.90
9915;DHT22;4996;48.746;9.174;2022-09-27T07:52:43;11.10;99.90
9915;DHT22;4996;48.746;9.174;2022-09-27T07:55:10;10.90;99.90
9915;DHT22;4996;48.746;9.174;2022-09-27T07:57:37;11.00;99.90
9915;DHT22;4996;48.746;9.174;2022-09-27T08:00:06;11.20;99.90
9915;DHT22;4996;48.746;9.174;2022-09-27T08:02:32;11.30;99.90
9915;DHT22;4996;48.746;9.174;2022-09-27T08:05:02;11.40;99.90
9915;DHT22;4996;48.746;9.174;2022-09-27T08:07:28;11.50;99.90
9915;DHT22;4996;48.746;9.174;2022-09-27T08:09:54;11.90;99.90
9915;DHT22;4996;48.746;9.174;2022-09-27T08:12:20;11.80;99.90
9915;DHT22;4996;48.746;9.174;2022-09-27T08:14:47;11.80;99.90
9915;DHT22;4996;48.746;9.174;2022-09-27T08:17:13;11.80;99.90
9915;DHT22;4996;48.746;9.174;2022-09-27T08:19:39;11.80;99.90
9915;DHT22;4996;48.746;9.174;2022-09-27T08:22:06;11.80;99.90
9915;DHT22;4996;48.746;9.174;2022-09-27T08:24:32;11.90;99.90
9915;DHT22;4996;48.746;9.174;2022-09-27T08:26:58;11.80;99.90
9915;DHT22;4996;48.746;9.174;2022-09-27T08:29:24;11.90;99.90
9915;DHT22;4996;48.746;9.174;2022-09-27T08:31:50;11.90;99.90
9915;DHT22;4996;48.746;9.174;2022-09-27T08:34:16;12.00;99.90
9915;DHT22;4996;48.746;9.174;2022-09-27T08:36:42;12.40;99.90
9915;DHT22;4996;48.746;9.174;2022-09-27T08:39:08;12.30;99.90
9915;DHT22;4996;48.746;9.174;2022-09-27T08:41:37;12.30;99.90
9915;DHT22;4996;48.746;9.174;2022-09-27T08:47:15;12.10;99.90
9915;DHT22;4996;48.746;9.174;2022-09-27T08:49:50;11.90;99.90
9915;DHT22;4996;48.746;9.174;2022-09-27T08:52:41;11.50;99.90
9915;DHT22;4996;48.746;9.174;2022-09-27T08:55:29;11.50;99.90
9915;DHT22;4996;48.746;9.174;2022-09-27T08:57:58;11.70;99.90
9915;DHT22;4996;48.746;9.174;2022-09-27T09:00:24;11.60;99.90
9915;DHT22;4996;48.746;9.174;2022-09-27T09:02:51;11.60;99.90
9915;DHT22;4996;48.746;9.174;2022-09-27T09:05:26;11.70;99.90
9915;DHT22;4996;48.746;9.174;2022-09-27T09:08:20;11.70;99.90
9915;DHT22;4996;48.746;9.174;2022-09-27T09:10:59;11.80;99.90
9915;DHT22;4996;48.746;9.174;2022-09-27T09:19:23;12.50;99.90
9915;DHT22;4996;48.746;9.174;2022-09-27T09:22:30;12.30;99.90
9915;DHT22;4996;48.746;9.174;2022-09-27T09:27:49;12.10;99.90
9915;DHT22;4996;48.746;9.174;2022-09-27T09:30:19;12.10;99.90
9915;DHT22;4996;48.746;9.174;2022-09-27T09:33:10;12.40;99.90
9915;DHT22;4996;48.746;9.174;2022-09-27T09:35:42;12.80;99.90
9915;DHT22;4996;48.746;9.174;2022-09-27T09:38:17;13.00;99.90
9915;DHT22;4996;48.746;9.174;2022-09-27T09:40:59;12.90;99.90
9915;DHT22;4996;48.746;9.174;2022-09-27T09:43:34;12.90;99.90
9915;DHT22;4996;48.746;9.174;2022-09-27T09:49:36;13.10;99.90
9915;DHT22;4996;48.746;9.174;2022-09-27T09:52:16;13.40;99.90
9915;DHT22;4996;48.746;9.174;2022-09-27T09:55:35;13.90;99.90
9915;DHT22;4996;48.746;9.174;2022-09-27T09:57:53;13.60;99.90
9915;DHT22;4996;48.746;9.174;2022-09-27T10:00:22;13.60;99.90
9915;DHT22;4996;48.746;9.174;2022-09-27T10:02:50;13.40;99.90
9915;DHT22;4996;48.746;9.174;2022-09-27T10:05:24;13.60;99.90
9915;DHT22;4996;48.746;9.174;2022-09-27T10:07:52;13.60;99.90
9915;DHT22;4996;48.746;9.174;2022-09-27T10:10:20;13.60;99.90
9915;DHT22;4996;48.746;9.174;2022-09-27T10:12:46;13.40;99.90
9915;DHT22;4996;48.746;9.174;2022-09-27T10:15:16;13.50;99.90
9915;DHT22;4996;48.746;9.174;2022-09-27T10:17:47;13.40;99.90
9915;DHT22;4996;48.746;9.174;2022-09-27T10:20:26;13.50;99.90
9915;DHT22;4996;48.746;9.174;2022-09-27T10:22:56;13.50;99.90
9915;DHT22;4996;48.746;9.174;2022-09-27T10:25:23;13.50;99.90
9915;DHT22;4996;48.746;9.174;2022-09-27T10:27:51;13.40;99.90
9915;DHT22;4996;48.746;9.174;2022-09-27T10:32:52;13.40;99.90
9915;DHT22;4996;48.746;9.174;2022-09-27T10:35:39;13.20;99.90
9915;DHT22;4996;48.746;9.174;2022-09-27T10:38:30;13.00;99.90
9915;DHT22;4996;48.746;9.174;2022-09-27T10:43:39;13.10;99.90
9915;DHT22;4996;48.746;9.174;2022-09-27T10:48:34;13.40;99.90
9915;DHT22;4996;48.746;9.174;2022-09-27T10:51:07;13.70;99.90
9915;DHT22;4996;48.746;9.174;2022-09-27T10:53:44;13.70;99.90
9915;DHT22;4996;48.746;9.174;2022-09-27T10:56:21;13.60;99.90
9915;DHT22;4996;48.746;9.174;2022-09-27T10:58:48;13.70;99.90
9915;DHT22;4996;48.746;9.174;2022-09-27T11:01:14;13.80;99.90
9915;DHT22;4996;48.746;9.174;2022-09-27T11:03:52;13.60;99.90
9915;DHT22;4996;48.746;9.174;2022-09-27T11:06:27;13.50;99.90
9915;DHT22;4996;48.746;9.174;2022-09-27T11:08:54;13.50;99.90
9915;DHT22;4996;48.746;9.174;2022-09-27T11:11:24;13.30;99.90
9915;DHT22;4996;48.746;9.174;2022-09-27T11:22:11;13.90;99.90
9915;DHT22;4996;48.746;9.174;2022-09-27T11:27:31;13.90;99.90
9915;DHT22;4996;48.746;9.174;2022-09-27T11:30:18;14.10;99.90
9915;DHT22;4996;48.746;9.174;2022-09-27T11:35:43;14.10;99.90
9915;DHT22;4996;48.746;9.174;2022-09-27T11:38:38;13.90;99.90
9915;DHT22;4996;48.746;9.174;2022-09-27T11:54:52;14.30;99.90
9915;DHT22;4996;48.746;9.174;2022-09-27T11:59:56;14.30;99.90
9915;DHT22;4996;48.746;9.174;2022-09-27T12:10:16;14.20;99.90
9915;DHT22;4996;48.746;9.174;2022-09-27T12:12:45;13.90;99.90
9915;DHT22;4996;48.746;9.174;2022-09-27T12:15:21;13.40;99.90
9915;DHT22;4996;48.746;9.174;2022-09-27T12:17:51;13.30;99.90
9915;DHT22;4996;48.746;9.174;2022-09-27T12:20:22;13.30;99.90
9915;DHT22;4996;48.746;9.174;2022-09-27T12:23:01;13.10;99.90
9915;DHT22;4996;48.746;9.174;2022-09-27T12:25:35;13.20;99.90
9915;DHT22;4996;48.746;9.174;2022-09-27T12:28:07;13.50;99.90
9915;DHT22;4996;48.746;9.174;2022-09-27T12:30:37;13.50;99.90
9915;DHT22;4996;48.746;9.174;2022-09-27T12:35:49;13.00;99.90
9915;DHT22;4996;48.746;9.174;2022-09-27T12:38:23;12.90;99.90
9915;DHT22;4996;48.746;9.174;2022-09-27T12:40:53;12.60;99.90
9915;DHT22;4996;48.746;9.174;2022-09-27T12:43:26;12.60;99.90
9915;DHT22;4996;48.746;9.174;2022-09-27T12:46:32;12.60;99.90
9915;DHT22;4996;48.746;9.174;2022-09-27T12:51:44;12.90;99.90
9915;DHT22;4996;48.746;9.174;2022-09-27T12:54:22;12.80;99.90
9915;DHT22;4996;48.746;9.174;2022-09-27T13:10:42;13.30;99.90
9915;DHT22;4996;48.746;9.174;2022-09-27T13:13:14;13.50;99.90
9915;DHT22;4996;48.746;9.174;2022-09-27T13:15:43;13.70;99.90
9915;DHT22;4996;48.746;9.174;2022-09-27T13:20:53;13.60;99.90
9915;DHT22;4996;48.746;9.174;2022-09-27T13:31:13;13.20;99.90
9915;DHT22;4996;48.746;9.174;2022-09-27T13:33:50;13.00;99.90
9915;DHT22;4996;48.746;9.174;2022-09-27T13:39:00;13.30;99.90
9915;DHT22;4996;48.746;9.174;2022-09-27T13:44:32;13.20;99.90
9915;DHT22;4996;48.746;9.174;2022-09-27T13:47:19;13.30;99.90
9915;DHT22;4996;48.746;9.174;2022-09-27T13:49:50;13.30;99.90
9915;DHT22;4996;48.746;9.174;2022-09-27T13:52:31;13.50;99.90
9915;DHT22;4996;48.746;9.174;2022-09-27T13:55:01;13.40;99.90
9915;DHT22;4996;48.746;9.174;2022-09-27T13:58:33;13.00;99.90
9915;DHT22;4996;48.746;9.174;2022-09-27T14:00:43;13.00;99.90
9915;DHT22;4996;48.746;9.174;2022-09-27T14:05:54;12.80;99.90
9915;DHT22;4996;48.746;9.174;2022-09-27T14:08:34;12.70;99.90
9915;DHT22;4996;48.746;9.174;2022-09-27T14:11:02;12.70;99.90
9915;DHT22;4996;48.746;9.174;2022-09-27T14:13:30;12.80;99.90
9915;DHT22;4996;48.746;9.174;2022-09-27T14:15:59;12.80;99.90
9915;DHT22;4996;48.746;9.174;2022-09-27T14:18:27;12.00;99.90
9915;DHT22;4996;48.746;9.174;2022-09-27T14:21:13;11.00;99.90
9915;DHT22;4996;48.746;9.174;2022-09-27T14:23:41;10.60;99.90
9915;DHT22;4996;48.746;9.174;2022-09-27T14:26:21;10.50;99.90
9915;DHT22;4996;48.746;9.174;2022-09-27T14:28:47;10.60;99.90
9915;DHT22;4996;48.746;9.174;2022-09-27T14:31:15;10.70;99.90
9915;DHT22;4996;48.746;9.174;2022-09-27T14:33:42;10.70;99.90
9915;DHT22;4996;48.746;9.174;2022-09-27T14:39:26;10.60;99.90
9915;DHT22;4996;48.746;9.174;2022-09-27T14:41:55;10.70;99.90
9915;DHT22;4996;48.746;9.174;2022-09-27T14:44:21;10.90;99.90
9915;DHT22;4996;48.746;9.174;2022-09-27T14:46:47;11.20;99.90
9915;DHT22;4996;48.746;9.174;2022-09-27T14:49:22;11.30;99.90
9915;DHT22;4996;48.746;9.174;2022-09-27T14:51:53;11.40;99.90
9915;DHT22;4996;48.746;9.174;2022-09-27T14:54:26;11.50;99.90
9915;DHT22;4996;48.746;9.174;2022-09-27T14:56:55;11.70;99.90
9915;DHT22;4996;48.746;9.174;2022-09-27T14:59:27;11.80;99.90
9915;DHT22;4996;48.746;9.174;2022-09-27T15:01:58;12.00;99.90
9915;DHT22;4996;48.746;9.174;2022-09-27T15:04:26;11.80;99.90
9915;DHT22;4996;48.746;9.174;2022-09-27T15:06:54;12.00;99.90
9915;DHT22;4996;48.746;9.174;2022-09-27T15:09:20;12.00;99.90
9915;DHT22;4996;48.746;9.174;2022-09-27T15:11:52;12.00;99.90
9915;DHT22;4996;48.746;9.174;2022-09-27T15:14:19;11.90;99.90
9915;DHT22;4996;48.746;9.174;2022-09-27T15:16:47;12.00;99.90
9915;DHT22;4996;48.746;9.174;2022-09-27T15:21:47;11.90;99.90
9915;DHT22;4996;48.746;9.174;2022-09-27T15:24:38;11.90;99.90
9915;DHT22;4996;48.746;9.174;2022-09-27T15:27:15;12.10;99.90
9915;DHT22;4996;48.746;9.174;2022-09-27T15:29:50;12.20;99.90
9915;DHT22;4996;48.746;9.174;2022-09-27T15:32:21;12.20;99.90
9915;DHT22;4996;48.746;9.174;2022-09-27T15:34:48;12.30;99.90
9915;DHT22;4996;48.746;9.174;2022-09-27T15:37:34;12.10;99.90
9915;DHT22;4996;48.746;9.174;2022-09-27T15:42:55;12.10;99.90
9915;DHT22;4996;48.746;9.174;2022-09-27T15:45:33;12.10;99.90
9915;DHT22;4996;48.746;9.174;2022-09-27T15:48:14;12.30;99.90
9915;DHT22;4996;48.746;9.174;2022-09-27T15:50:40;12.40;99.90
9915;DHT22;4996;48.746;9.174;2022-09-27T15:53:07;12.50;99.90
9915;DHT22;4996;48.746;9.174;2022-09-27T15:55:38;12.60;99.90
9915;DHT22;4996;48.746;9.174;2022-09-27T15:58:24;12.40;99.90
9915;DHT22;4996;48.746;9.174;2022-09-27T16:00:57;12.50;99.90
9915;DHT22;4996;48.746;9.174;2022-09-27T16:03:25;12.50;99.90
9915;DHT22;4996;48.746;9.174;2022-09-27T16:05:51;12.60;99.90
9915;DHT22;4996;48.746;9.174;2022-09-27T16:08:17;12.60;99.90
9915;DHT22;4996;48.746;9.174;2022-09-27T16:10:49;12.50;99.90
9915;DHT22;4996;48.746;9.174;2022-09-27T16:13:15;12.50;99.90
9915;DHT22;4996;48.746;9.174;2022-09-27T16:15:41;12.20;99.90
9915;DHT22;4996;48.746;9.174;2022-09-27T16:18:06;12.00;99.90
9915;DHT22;4996;48.746;9.174;2022-09-27T16:20:32;12.00;99.90
9915;DHT22;4996;48.746;9.174;2022-09-27T16:22:57;12.10;99.90
9915;DHT22;4996;48.746;9.174;2022-09-27T16:25:23;12.00;99.90
9915;DHT22;4996;48.746;9.174;2022-09-27T16:27:50;12.10;99.90
9915;DHT22;4996;48.746;9.174;2022-09-27T16:30:16;12.00;99.90
9915;DHT22;4996;48.746;9.174;2022-09-27T16:32:43;12.10;99.90
9915;DHT22;4996;48.746;9.174;2022-09-27T16:35:10;11.90;99.90
9915;DHT22;4996;48.746;9.174;2022-09-27T16:37:36;11.60;99.90
9915;DHT22;4996;48.746;9.174;2022-09-27T16:40:05;11.80;99.90
9915;DHT22;4996;48.746;9.174;2022-09-27T16:42:32;11.80;99.90
9915;DHT22;4996;48.746;9.174;2022-09-27T16:44:58;11.60;99.90
9915;DHT22;4996;48.746;9.174;2022-09-27T16:47:26;11.60;99.90
9915;DHT22;4996;48.746;9.174;2022-09-27T16:49:51;11.70;99.90
9915;DHT22;4996;48.746;9.174;2022-09-27T16:52:35;11.80;99.90
9915;DHT22;4996;48.746;9.174;2022-09-27T16:55:01;11.80;99.90
9915;DHT22;4996;48.746;9.174;2022-09-27T16:57:27;11.80;99.90
9915;DHT22;4996;48.746;9.174;2022-09-27T16:59:53;11.60;99.90
9915;DHT22;4996;48.746;9.174;2022-09-27T17:02:21;11.50;99.90
9915;DHT22;4996;48.746;9.174;2022-09-27T17:04:48;11.60;99.90
9915;DHT22;4996;48.746;9.174;2022-09-27T17:07:13;11.50;99.90
9915;DHT22;4996;48.746;9.174;2022-09-27T17:09:39;11.50;99.90
9915;DHT22;4996;48.746;9.174;2022-09-27T17:12:05;11.60;99.90
9915;DHT22;4996;48.746;9.174;2022-09-27T17:14:30;11.70;99.90
9915;DHT22;4996;48.746;9.174;2022-09-27T17:16:56;11.50;99.90
9915;DHT22;4996;48.746;9.174;2022-09-27T17:19:23;11.50;99.90
9915;DHT22;4996;48.746;9.174;2022-09-27T17:21:48;11.40;99.90
9915;DHT22;4996;48.746;9.174;2022-09-27T17:24:14;11.20;99.90
9915;DHT22;4996;48.746;9.174;2022-09-27T17:26:40;11.30;99.90
9915;DHT22;4996;48.746;9.174;2022-09-27T17:29:05;11.10;99.90
9915;DHT22;4996;48.746;9.174;2022-09-27T17:31:32;11.00;99.90
9915;DHT22;4996;48.746;9.174;2022-09-27T17:34:01;11.20;99.90
9915;DHT22;4996;48.746;9.174;2022-09-27T17:36:29;11.30;99.90
9915;DHT22;4996;48.746;9.174;2022-09-27T17:38:56;11.40;99.90
9915;DHT22;4996;48.746;9.174;2022-09-27T17:41:25;11.40;99.90
9915;DHT22;4996;48.746;9.174;2022-09-27T17:43:58;11.40;99.90
9915;DHT22;4996;48.746;9.174;2022-09-27T17:46:31;11.10;99.90
9915;DHT22;4996;48.746;9.174;2022-09-27T17:48:58;11.00;99.90
9915;DHT22;4996;48.746;9.174;2022-09-27T17:51:45;11.00;99.90
9915;DHT22;4996;48.746;9.174;2022-09-27T17:54:11;10.90;99.90
9915;DHT22;4996;48.746;9.174;2022-09-27T17:56:39;11.10;99.90
9915;DHT22;4996;48.746;9.174;2022-09-27T17:59:05;11.00;99.90
9915;DHT22;4996;48.746;9.174;2022-09-27T18:01:32;11.10;99.90
9915;DHT22;4996;48.746;9.174;2022-09-27T18:03:58;11.00;99.90
9915;DHT22;4996;48.746;9.174;2022-09-27T18:06:26;11.10;99.90
9915;DHT22;4996;48.746;9.174;2022-09-27T18:08:53;11.00;99.90
9915;DHT22;4996;48.746;9.174;2022-09-27T18:11:21;10.90;99.90
9915;DHT22;4996;48.746;9.174;2022-09-27T18:13:53;10.90;99.90
9915;DHT22;4996;48.746;9.174;2022-09-27T18:16:19;10.90;99.90
9915;DHT22;4996;48.746;9.174;2022-09-27T18:18:46;11.00;99.90
9915;DHT22;4996;48.746;9.174;2022-09-27T18:21:17;11.00;99.90
9915;DHT22;4996;48.746;9.174;2022-09-27T18:23:47;11.00;99.90
9915;DHT22;4996;48.746;9.174;2022-09-27T18:26:13;10.80;99.90
9915;DHT22;4996;48.746;9.174;2022-09-27T18:28:40;10.80;99.90
9915;DHT22;4996;48.746;9.174;2022-09-27T18:31:12;10.70;99.90
9915;DHT22;4996;48.746;9.174;2022-09-27T18:33:38;10.80;99.90
9915;DHT22;4996;48.746;9.174;2022-09-27T18:36:12;10.50;99.90
9915;DHT22;4996;48.746;9.174;2022-09-27T18:38:39;10.50;99.90
9915;DHT22;4996;48.746;9.174;2022-09-27T18:41:06;10.50;99.90
9915;DHT22;4996;48.746;9.174;2022-09-27T18:43:33;10.50;99.90
9915;DHT22;4996;48.746;9.174;2022-09-27T18:46:00;10.40;99.90
9915;DHT22;4996;48.746;9.174;2022-09-27T18:48:26;10.40;99.90